Time;durP1;ratioP1;P1;durP2;ratioP2;P2;SDS_P1;SDS_P2;PMS_P1;PMS_P2;Temp;Humidity;BMP_temperature;BMP_pressure;BME280_temperature;BME280_humidity;BME280_pressure;Samples;Min_cycle;Max_cycle;Signal;HPM_P1;HPM_P2
2024/02/24 00:00:18;;;;;;;;;;;;;;;-144.99;nan;52611.16;5040140;28;19932;-63
2024/02/24 00:02:44;;;;;;;;;;;;;;;-144.99;nan;52609.13;5041042;28;20018;-64
2024/02/24 00:05:11;;;;;;;;;;;;;;;-144.99;nan;52605.03;5038328;28;19964;-63
2024/02/24 00:07:37;;;;;;;;;;;;;;;-144.99;nan;52613.19;5035756;28;19928;-66
2024/02/24 00:10:04;;;;;;;;;;;;;;;-144.99;nan;52637.66;5037374;28;19929;-66
2024/02/24 00:12:32;;;;;;;;;;;;;;;-144.99;nan;52615.25;5041203;28;20065;-65
2024/02/24 00:14:58;;;;;;;;;;;;;;;-144.99;nan;52629.50;5037574;28;19952;-67
2024/02/24 00:17:26;;;;;;;;;;;;;;;-144.99;nan;52635.63;5040655;28;19943;-65
2024/02/24 00:19:52;;;;;;;;;;;;;;;-144.99;nan;52615.25;5049022;28;20019;-66
2024/02/24 00:22:19;;;;;;;;;;;;;;;-144.99;nan;52611.16;5042028;28;20293;-64
2024/02/24 00:24:45;;;;;;;;;;;;;;;-144.99;nan;52605.03;5037438;28;19925;-64
2024/02/24 00:27:11;;;;;;;;;;;;;;;-144.99;nan;52627.47;5035887;28;20343;-63
2024/02/24 00:29:39;;;;;;;;;;;;;;;-144.99;nan;52598.94;5049468;28;20241;-66
2024/02/24 00:32:06;;;;;;;;;;;;;;;-144.99;nan;52619.31;5040663;28;20464;-66
2024/02/24 00:34:33;;;;;;;;;;;;;;;-144.99;nan;52596.88;5040580;28;20461;-67
2024/02/24 00:36:59;;;;;;;;;;;;;;;-144.99;nan;52619.31;5039527;28;19960;-65
2024/02/24 00:39:26;;;;;;;;;;;;;;;-144.99;nan;52651.94;5041056;28;20015;-65
2024/02/24 00:41:53;;;;;;;;;;;;;;;-144.99;nan;52621.34;5044145;28;19932;-64
2024/02/24 00:44:19;;;;;;;;;;;;;;;-144.99;nan;52656.00;5039368;28;19975;-67
2024/02/24 00:46:47;;;;;;;;;;;;;;;-144.99;nan;52596.88;5041515;28;20347;-68
2024/02/24 00:49:13;;;;;;;;;;;;;;;-144.99;nan;52617.28;5042694;28;19974;-69
2024/02/24 00:51:41;;;;;;;;;;;;;;;-144.99;nan;52656.00;5031094;28;20167;-68
2024/02/24 00:54:08;;;;;;;;;;;;;;;-144.99;nan;52631.53;5043894;28;19928;-69
2024/02/24 00:56:34;;;;;;;;;;;;;;;-144.99;nan;52660.09;5026904;28;20383;-65
2024/02/24 00:59:01;;;;;;;;;;;;;;;-144.99;nan;52615.25;5033620;28;20085;-65
2024/02/24 01:01:27;;;;;;;;;;;;;;;-144.99;nan;52615.25;5043888;28;20320;-66
2024/02/24 01:03:55;;;;;;;;;;;;;;;-144.99;nan;52662.13;5036011;28;19960;-66
2024/02/24 01:06:22;;;;;;;;;;;;;;;-144.99;nan;52607.09;5039150;28;19932;-66
2024/02/24 01:08:48;;;;;;;;;;;;;;;-144.99;nan;52627.47;5043511;28;20453;-67
2024/02/24 01:11:15;;;;;;;;;;;;;;;-144.99;nan;52656.00;5033516;28;19968;-66
2024/02/24 01:13:42;;;;;;;;;;;;;;;-144.99;nan;52627.47;5039653;28;20276;-65
2024/02/24 01:16:09;;;;;;;;;;;;;;;-144.99;nan;52607.09;5033813;28;20040;-64
2024/02/24 01:18:35;;;;;;;;;;;;;;;-144.99;nan;52635.63;5043931;28;19928;-64
2024/02/24 01:21:04;;;;;;;;;;;;;;;-144.99;nan;52607.09;5041313;28;19951;-63
2024/02/24 01:23:31;;;;;;;;;;;;;;;-144.99;nan;52635.63;5050451;28;20029;-64
2024/02/24 01:25:57;;;;;;;;;;;;;;;-144.99;nan;52623.38;5044607;28;20165;-64
2024/02/24 01:28:24;;;;;;;;;;;;;;;-144.99;nan;52647.84;5039223;28;19973;-63
2024/02/24 01:30:50;;;;;;;;;;;;;;;-144.99;nan;52621.34;5042305;28;19955;-64
2024/02/24 01:33:17;;;;;;;;;;;;;;;-144.99;nan;52647.84;5047734;28;19964;-63
2024/02/24 01:35:43;;;;;;;;;;;;;;;-144.99;nan;52651.94;5030865;28;20175;-63
2024/02/24 01:38:11;;;;;;;;;;;;;;;-144.99;nan;52647.84;5035242;28;20282;-63
2024/02/24 01:40:38;;;;;;;;;;;;;;;-144.99;nan;52639.69;5040618;28;19984;-64
2024/02/24 01:43:22;;;;;;;;;;;;;;;-144.99;nan;52611.16;5041277;28;19992;-63
2024/02/24 01:45:48;;;;;;;;;;;;;;;-144.99;nan;52611.16;5044734;28;20007;-64
2024/02/24 01:48:15;;;;;;;;;;;;;;;-144.99;nan;52609.13;5036668;28;19929;-63
2024/02/24 01:50:41;;;;;;;;;;;;;;;-144.99;nan;52627.47;5038980;28;20031;-64
2024/02/24 01:53:08;;;;;;;;;;;;;;;-144.99;nan;52631.53;5042756;28;19935;-64
2024/02/24 01:55:36;;;;;;;;;;;;;;;-144.99;nan;52623.38;5032792;28;20335;-64
2024/02/24 01:58:03;;;;;;;;;;;;;;;-144.99;nan;52619.31;5038845;28;19928;-64
2024/02/24 02:00:31;;;;;;;;;;;;;;;-144.99;nan;52656.00;5042576;28;20394;-64
2024/02/24 02:02:58;;;;;;;;;;;;;;;-144.99;nan;52639.69;5049056;28;19944;-63
2024/02/24 02:05:24;;;;;;;;;;;;;;;-144.99;nan;52619.31;5042994;28;19998;-63
2024/02/24 02:07:51;;;;;;;;;;;;;;;-144.99;nan;52605.03;5046205;28;20008;-63
2024/02/24 02:10:17;;;;;;;;;;;;;;;-144.99;nan;52611.16;5038419;28;19928;-64
2024/02/24 02:12:45;;;;;;;;;;;;;;;-144.99;nan;52660.09;5048965;28;19928;-65
2024/02/24 02:15:12;;;;;;;;;;;;;;;-144.99;nan;52635.63;5049125;28;19925;-63
2024/02/24 02:17:39;;;;;;;;;;;;;;;-144.99;nan;52623.38;5047091;28;19929;-65
2024/02/24 02:20:06;;;;;;;;;;;;;;;-144.99;nan;52631.53;5033740;28;19925;-65
2024/02/24 02:22:34;;;;;;;;;;;;;;;-144.99;nan;52658.03;5036357;28;19979;-67
2024/02/24 02:25:00;;;;;;;;;;;;;;;-144.99;nan;52598.94;5042082;28;20106;-65
2024/02/24 02:27:27;;;;;;;;;;;;;;;-144.99;nan;52639.69;5042474;28;19964;-67
2024/02/24 02:29:53;;;;;;;;;;;;;;;-144.99;nan;52611.16;5044299;28;19971;-65
2024/02/24 02:32:20;;;;;;;;;;;;;;;-144.99;nan;52627.47;5040782;28;20044;-66
2024/02/24 02:34:46;;;;;;;;;;;;;;;-144.99;nan;52653.97;5044192;28;19944;-63
2024/02/24 02:37:13;;;;;;;;;;;;;;;-144.99;nan;52605.03;5037179;28;19932;-62
2024/02/24 02:39:41;;;;;;;;;;;;;;;-144.99;nan;52627.47;4693898;28;9999624;-62
2024/02/24 02:42:07;;;;;;;;;;;;;;;-144.99;nan;52627.47;5031124;28;20170;-61
2024/02/24 02:44:34;;;;;;;;;;;;;;;-144.99;nan;52639.69;5045230;28;20080;-62
2024/02/24 02:47:00;;;;;;;;;;;;;;;-144.99;nan;52617.28;5055720;28;19956;-61
2024/02/24 02:49:27;;;;;;;;;;;;;;;-144.99;nan;52643.78;5047045;28;20013;-61
2024/02/24 02:51:53;;;;;;;;;;;;;;;-144.99;nan;52635.63;5058621;28;20028;-65
2024/02/24 02:54:19;;;;;;;;;;;;;;;-144.99;nan;52653.97;5050342;28;20398;-65
2024/02/24 02:56:47;;;;;;;;;;;;;;;-144.99;nan;52611.16;5061837;28;20252;-65
2024/02/24 02:59:14;;;;;;;;;;;;;;;-144.99;nan;52594.84;5058922;28;19936;-64
2024/02/24 03:01:40;;;;;;;;;;;;;;;-144.99;nan;52627.47;5057016;28;20030;-65
2024/02/24 03:04:07;;;;;;;;;;;;;;;-144.99;nan;52631.53;5047239;28;19925;-64
2024/02/24 03:06:33;;;;;;;;;;;;;;;-144.99;nan;52586.69;5049909;28;19925;-66
2024/02/24 03:08:59;;;;;;;;;;;;;;;-144.99;nan;52590.78;5058220;28;19936;-66
2024/02/24 03:11:26;;;;;;;;;;;;;;;-144.99;nan;52619.31;5055659;28;20533;-66
2024/02/24 03:13:54;;;;;;;;;;;;;;;-144.99;nan;52627.47;5052750;28;19929;-66
2024/02/24 03:16:20;;;;;;;;;;;;;;;-144.99;nan;52668.22;5047295;28;19929;-67
2024/02/24 03:18:47;;;;;;;;;;;;;;;-144.99;nan;52615.25;5040294;28;19925;-63
2024/02/24 03:21:23;;;;;;;;;;;;;;;-144.99;nan;52635.63;5052598;28;19974;-63
2024/02/24 03:23:50;;;;;;;;;;;;;;;-144.99;nan;52651.94;5050235;28;19928;-62
2024/02/24 03:26:16;;;;;;;;;;;;;;;-144.99;nan;52617.28;5044792;28;19924;-62
2024/02/24 03:28:43;;;;;;;;;;;;;;;-144.99;nan;52617.28;5050557;28;19940;-63
2024/02/24 03:31:11;;;;;;;;;;;;;;;-144.99;nan;52660.09;5050224;28;20307;-63
2024/02/24 03:33:37;;;;;;;;;;;;;;;-144.99;nan;52611.16;5049971;28;19947;-63
2024/02/24 03:36:04;;;;;;;;;;;;;;;-144.99;nan;52627.47;5041477;28;19925;-63
2024/02/24 03:38:30;;;;;;;;;;;;;;;-144.99;nan;52627.47;5045970;28;19979;-63
2024/02/24 03:40:57;;;;;;;;;;;;;;;-144.99;nan;52578.53;5049602;28;19980;-63
2024/02/24 03:43:23;;;;;;;;;;;;;;;-144.99;nan;52603.00;5045204;28;19933;-65
2024/02/24 03:45:50;;;;;;;;;;;;;;;-144.99;nan;52633.59;5044604;28;20039;-65
2024/02/24 03:48:18;;;;;;;;;;;;;;;-144.99;nan;52635.63;5043470;28;19925;-63
2024/02/24 03:50:44;;;;;;;;;;;;;;;-144.99;nan;52592.81;5047387;28;19968;-65
2024/02/24 03:53:11;;;;;;;;;;;;;;;-144.99;nan;52594.84;5047579;28;19925;-64
2024/02/24 03:55:37;;;;;;;;;;;;;;;-144.99;nan;52607.09;5035137;28;19955;-70
2024/02/24 03:58:04;;;;;;;;;;;;;;;-144.99;nan;52623.38;5038383;28;19960;-71
2024/02/24 04:00:34;;;;;;;;;;;;;;;-144.99;nan;52631.53;5043842;28;20407;-71
2024/02/24 04:03:01;;;;;;;;;;;;;;;-144.99;nan;52645.81;5048602;28;19936;-71
2024/02/24 04:05:29;;;;;;;;;;;;;;;-144.99;nan;52656.00;5039566;28;19928;-71
2024/02/24 04:07:56;;;;;;;;;;;;;;;-144.99;nan;52625.44;5037848;28;19995;-71
2024/02/24 04:10:22;;;;;;;;;;;;;;;-144.99;nan;52639.69;5035739;28;19929;-72
2024/02/24 04:12:49;;;;;;;;;;;;;;;-144.99;nan;52631.53;5048937;28;19971;-72
2024/02/24 04:15:19;;;;;;;;;;;;;;;-144.99;nan;52615.25;5042057;28;20553;-73
2024/02/24 04:17:45;;;;;;;;;;;;;;;-144.99;nan;52643.78;5042563;28;19925;-72
2024/02/24 04:20:12;;;;;;;;;;;;;;;-144.99;nan;52627.47;5039410;28;20328;-73
2024/02/24 04:22:40;;;;;;;;;;;;;;;-144.99;nan;52594.84;5046176;28;20291;-73
2024/02/24 04:25:07;;;;;;;;;;;;;;;-144.99;nan;52656.00;5047823;28;19994;-67
2024/02/24 04:27:34;;;;;;;;;;;;;;;-144.99;nan;52639.69;5039963;28;19972;-67
2024/02/24 04:30:00;;;;;;;;;;;;;;;-144.99;nan;52611.16;5037160;28;19956;-66
2024/02/24 04:32:27;;;;;;;;;;;;;;;-144.99;nan;52619.31;5036079;28;20359;-67
2024/02/24 04:34:54;;;;;;;;;;;;;;;-144.99;nan;52627.47;5045257;28;20371;-67
2024/02/24 04:37:20;;;;;;;;;;;;;;;-144.99;nan;52607.09;5043515;28;19933;-67
2024/02/24 04:39:48;;;;;;;;;;;;;;;-144.99;nan;52660.09;5045759;28;20264;-65
2024/02/24 04:42:16;;;;;;;;;;;;;;;-144.99;nan;52623.38;5038572;28;20296;-65
2024/02/24 04:44:47;;;;;;;;;;;;;;;-144.99;nan;52647.84;5047447;28;19928;-65
2024/02/24 04:47:13;;;;;;;;;;;;;;;-144.99;nan;52641.72;5040209;28;19986;-65
2024/02/24 04:49:40;;;;;;;;;;;;;;;-144.99;nan;52627.47;5043206;28;20105;-66
2024/02/24 04:52:06;;;;;;;;;;;;;;;-144.99;nan;52639.69;5040958;28;20005;-65
2024/02/24 04:54:33;;;;;;;;;;;;;;;-144.99;nan;52627.47;5041961;28;19928;-65
2024/02/24 04:57:01;;;;;;;;;;;;;;;-144.99;nan;52611.16;5042733;28;19932;-65
2024/02/24 04:59:28;;;;;;;;;;;;;;;-144.99;nan;52629.50;5039479;28;20311;-65
2024/02/24 05:01:54;;;;;;;;;;;;;;;-144.99;nan;52615.25;5035985;28;19925;-63
2024/02/24 05:04:20;;;;;;;;;;;;;;;-144.99;nan;52613.19;5044972;28;19940;-63
2024/02/24 05:06:47;;;;;;;;;;;;;;;-144.99;nan;52590.78;5038750;28;20466;-63
2024/02/24 05:09:13;;;;;;;;;;;;;;;-144.99;nan;52631.53;5043543;28;20343;-64
2024/02/24 05:11:40;;;;;;;;;;;;;;;-144.99;nan;52631.53;5032023;28;20244;-64
2024/02/24 05:14:08;;;;;;;;;;;;;;;-144.99;nan;52680.47;5038191;28;19933;-64
2024/02/24 05:16:35;;;;;;;;;;;;;;;-144.99;nan;52621.34;5041433;28;19932;-64
2024/02/24 05:19:01;;;;;;;;;;;;;;;-144.99;nan;52649.88;5033460;28;19936;-63
2024/02/24 05:21:28;;;;;;;;;;;;;;;-144.99;nan;52651.94;5042066;28;19988;-64
2024/02/24 05:23:54;;;;;;;;;;;;;;;-144.99;nan;52627.47;5034847;28;19964;-64
2024/02/24 05:26:22;;;;;;;;;;;;;;;-144.99;nan;52635.63;5047614;28;20389;-64
2024/02/24 05:28:49;;;;;;;;;;;;;;;-144.99;nan;52651.94;5044562;28;19980;-63
2024/02/24 05:31:17;;;;;;;;;;;;;;;-144.99;nan;52651.94;5042370;28;20382;-64
2024/02/24 05:33:44;;;;;;;;;;;;;;;-144.99;nan;52600.97;5036611;28;20006;-63
2024/02/24 05:36:10;;;;;;;;;;;;;;;-144.99;nan;52651.94;5037811;28;20209;-64
2024/02/24 05:38:37;;;;;;;;;;;;;;;-144.99;nan;52615.25;5046509;28;20387;-66
2024/02/24 05:41:04;;;;;;;;;;;;;;;-144.99;nan;52619.31;5039491;28;20064;-66
2024/02/24 05:43:32;;;;;;;;;;;;;;;-144.99;nan;52594.84;5041234;28;19971;-66
2024/02/24 05:45:59;;;;;;;;;;;;;;;-144.99;nan;52623.38;5047010;28;19968;-66
2024/02/24 05:48:29;;;;;;;;;;;;;;;-144.99;nan;52635.63;5049195;28;19928;-66
2024/02/24 05:50:56;;;;;;;;;;;;;;;-144.99;nan;52598.94;5045105;28;19928;-62
2024/02/24 05:53:22;;;;;;;;;;;;;;;-144.99;nan;52668.22;5045649;28;19932;-62
2024/02/24 05:55:49;;;;;;;;;;;;;;;-144.99;nan;52611.16;5039095;28;21542;-63
2024/02/24 05:58:16;;;;;;;;;;;;;;;-144.99;nan;52637.66;5041763;28;19933;-63
2024/02/24 06:00:42;;;;;;;;;;;;;;;-144.99;nan;52603.00;5040820;28;19983;-63
2024/02/24 06:03:11;;;;;;;;;;;;;;;-144.99;nan;52647.84;5048706;28;19968;-66
2024/02/24 06:05:39;;;;;;;;;;;;;;;-144.99;nan;52582.63;5037699;28;19982;-66
2024/02/24 06:08:06;;;;;;;;;;;;;;;-144.99;nan;52615.25;5043793;28;19943;-66
2024/02/24 06:10:33;;;;;;;;;;;;;;;-144.99;nan;52629.50;5044621;28;19929;-66
2024/02/24 06:13:00;;;;;;;;;;;;;;;-144.99;nan;52619.31;5045645;28;19960;-62
2024/02/24 06:15:26;;;;;;;;;;;;;;;-144.99;nan;52645.81;5038654;28;19929;-61
2024/02/24 06:17:53;;;;;;;;;;;;;;;-144.99;nan;52635.63;5047137;28;20347;-66
2024/02/24 06:20:20;;;;;;;;;;;;;;;-144.99;nan;52660.09;5038351;28;20418;-66
2024/02/24 06:22:48;;;;;;;;;;;;;;;-144.99;nan;52605.03;5044414;28;19956;-68
2024/02/24 06:25:14;;;;;;;;;;;;;;;-144.99;nan;52635.63;5044408;28;20027;-69
2024/02/24 06:27:41;;;;;;;;;;;;;;;-144.99;nan;52568.34;5048533;28;19990;-68
2024/02/24 06:30:08;;;;;;;;;;;;;;;-144.99;nan;52607.09;5050815;28;20424;-66
2024/02/24 06:32:34;;;;;;;;;;;;;;;-144.99;nan;52651.94;5055121;28;20000;-67
2024/02/24 06:35:01;;;;;;;;;;;;;;;-144.99;nan;52617.28;5054413;28;20075;-67
2024/02/24 06:37:27;;;;;;;;;;;;;;;-144.99;nan;52647.84;5039833;28;20019;-67
2024/02/24 06:39:55;;;;;;;;;;;;;;;-144.99;nan;52619.31;5042494;28;20012;-66
2024/02/24 06:42:22;;;;;;;;;;;;;;;-144.99;nan;52607.09;5047017;28;20215;-66
2024/02/24 06:44:48;;;;;;;;;;;;;;;-144.99;nan;52627.47;5047889;28;20073;-67
2024/02/24 06:47:15;;;;;;;;;;;;;;;-144.99;nan;52623.38;5040592;28;19979;-67
2024/02/24 06:49:41;;;;;;;;;;;;;;;-144.99;nan;52615.25;5043877;28;19980;-68
2024/02/24 06:52:08;;;;;;;;;;;;;;;-144.99;nan;52574.47;5046113;28;20036;-67
2024/02/24 06:54:34;;;;;;;;;;;;;;;-144.99;nan;52590.78;5041782;28;19929;-66
2024/02/24 06:57:02;;;;;;;;;;;;;;;-144.99;nan;52596.88;5040061;28;20024;-67
2024/02/24 06:59:29;;;;;;;;;;;;;;;-144.99;nan;52603.00;5040765;28;19928;-67
2024/02/24 07:01:55;;;;;;;;;;;;;;;-144.99;nan;52578.53;5042757;28;19955;-68
2024/02/24 07:04:22;;;;;;;;;;;;;;;-144.99;nan;52570.38;5045791;28;20031;-67
2024/02/24 07:06:48;;;;;;;;;;;;;;;-144.99;nan;52605.03;5043743;28;20027;-67
2024/02/24 07:09:15;;;;;;;;;;;;;;;-144.99;nan;52651.94;5046278;28;19952;-64
2024/02/24 07:11:42;;;;;;;;;;;;;;;-144.99;nan;52647.84;5037728;28;20030;-64
2024/02/24 07:14:09;;;;;;;;;;;;;;;-144.99;nan;52586.69;5041785;28;19929;-65
2024/02/24 07:16:36;;;;;;;;;;;;;;;-144.99;nan;52639.69;5039571;28;20042;-64
2024/02/24 07:19:02;;;;;;;;;;;;;;;-144.99;nan;52609.13;5049558;28;20340;-64
2024/02/24 07:21:29;;;;;;;;;;;;;;;-144.99;nan;52647.84;5040851;28;19968;-64
2024/02/24 07:23:55;;;;;;;;;;;;;;;-144.99;nan;52586.69;5048583;28;19964;-65
2024/02/24 07:26:22;;;;;;;;;;;;;;;-144.99;nan;52651.94;5043626;28;20015;-65
2024/02/24 07:28:48;;;;;;;;;;;;;;;-144.99;nan;52619.31;5036728;28;19972;-64
2024/02/24 07:31:16;;;;;;;;;;;;;;;-144.99;nan;52568.34;5038311;28;20023;-65
2024/02/24 07:33:43;;;;;;;;;;;;;;;-144.99;nan;52615.25;5046803;28;20448;-64
2024/02/24 07:36:10;;;;;;;;;;;;;;;-144.99;nan;52594.84;5046033;28;20066;-64
2024/02/24 07:38:39;;;;;;;;;;;;;;;-144.99;nan;52596.88;5040725;28;20043;-68
2024/02/24 07:41:06;;;;;;;;;;;;;;;-144.99;nan;52615.25;5051444;28;19979;-67
2024/02/24 07:43:33;;;;;;;;;;;;;;;-144.99;nan;52590.78;5040044;28;19929;-67
2024/02/24 07:45:59;;;;;;;;;;;;;;;-144.99;nan;52590.78;5046649;28;20392;-67
2024/02/24 07:48:27;;;;;;;;;;;;;;;-144.99;nan;52643.78;5039953;28;19940;-63
2024/02/24 07:50:54;;;;;;;;;;;;;;;-144.99;nan;52631.53;5042471;28;20339;-63
2024/02/24 07:53:20;;;;;;;;;;;;;;;-144.99;nan;52594.84;5043969;28;20047;-62
2024/02/24 07:55:47;;;;;;;;;;;;;;;-144.99;nan;52611.16;5035457;28;19926;-64
2024/02/24 07:58:14;;;;;;;;;;;;;;;-144.99;nan;52603.00;5044136;28;19925;-64
2024/02/24 08:00:40;;;;;;;;;;;;;;;-144.99;nan;52570.38;5046931;28;19974;-63
2024/02/24 08:03:07;;;;;;;;;;;;;;;-144.99;nan;52570.38;5040030;28;19933;-64
2024/02/24 08:05:35;;;;;;;;;;;;;;;-144.99;nan;52609.13;5041459;28;19928;-64
2024/02/24 08:08:02;;;;;;;;;;;;;;;-144.99;nan;52603.00;5047193;28;20260;-66
2024/02/24 08:10:28;;;;;;;;;;;;;;;-144.99;nan;52603.00;5038748;28;20019;-68
2024/02/24 08:12:55;;;;;;;;;;;;;;;-144.99;nan;52607.09;5043653;28;19925;-68
2024/02/24 08:15:21;;;;;;;;;;;;;;;-144.99;nan;52598.94;5043182;28;19968;-68
2024/02/24 08:17:48;;;;;;;;;;;;;;;-144.99;nan;52554.09;5041376;28;19924;-68
2024/02/24 08:20:14;;;;;;;;;;;;;;;-144.99;nan;52594.84;5050951;28;19971;-67
2024/02/24 08:22:43;;;;;;;;;;;;;;;-144.99;nan;52541.84;5042631;28;19932;-68
2024/02/24 08:25:10;;;;;;;;;;;;;;;-144.99;nan;52572.44;5037977;28;19924;-67
2024/02/24 08:27:36;;;;;;;;;;;;;;;-144.99;nan;52564.28;5039700;28;19936;-68
2024/02/24 08:30:03;;;;;;;;;;;;;;;-144.99;nan;52590.78;5048471;28;20412;-67
2024/02/24 08:32:30;;;;;;;;;;;;;;;-144.99;nan;52613.19;5044972;28;19968;-68
2024/02/24 08:34:56;;;;;;;;;;;;;;;-144.99;nan;52562.25;5050315;28;19950;-69
2024/02/24 08:37:23;;;;;;;;;;;;;;;-144.99;nan;52570.38;5033385;28;20003;-69
2024/02/24 08:39:51;;;;;;;;;;;;;;;-144.99;nan;52543.91;5036610;28;20383;-69
2024/02/24 08:42:17;;;;;;;;;;;;;;;-144.99;nan;52582.63;5048271;28;19935;-68
2024/02/24 08:44:44;;;;;;;;;;;;;;;-144.99;nan;52529.63;5042725;28;20290;-68
2024/02/24 08:47:10;;;;;;;;;;;;;;;-144.99;nan;52547.97;5048955;28;19998;-68
2024/02/24 08:49:37;;;;;;;;;;;;;;;-144.99;nan;52519.44;5049495;28;19964;-68
2024/02/24 08:52:03;;;;;;;;;;;;;;;-144.99;nan;52574.47;5047135;28;20041;-68
2024/02/24 08:54:30;;;;;;;;;;;;;;;-144.99;nan;52590.78;5034221;28;20027;-68
2024/02/24 08:56:58;;;;;;;;;;;;;;;-144.99;nan;52578.53;5045266;28;19928;-69
2024/02/24 08:59:24;;;;;;;;;;;;;;;-144.99;nan;52545.94;5043203;28;19936;-67
2024/02/24 09:01:51;;;;;;;;;;;;;;;-144.99;nan;52594.84;5042808;28;19924;-67
2024/02/24 09:04:18;;;;;;;;;;;;;;;-144.99;nan;52576.50;5047882;28;20114;-67
2024/02/24 09:06:44;;;;;;;;;;;;;;;-144.99;nan;52578.53;5040431;28;19937;-67
2024/02/24 09:09:14;;;;;;;;;;;;;;;-144.99;nan;52578.53;5036676;28;19951;-68
2024/02/24 09:11:41;;;;;;;;;;;;;;;-144.99;nan;52570.38;5045547;28;19960;-67
2024/02/24 09:14:09;;;;;;;;;;;;;;;-144.99;nan;52566.31;5049947;28;19963;-67
2024/02/24 09:16:36;;;;;;;;;;;;;;;-144.99;nan;52550.00;5061434;28;20023;-67
2024/02/24 09:19:02;;;;;;;;;;;;;;;-144.99;nan;52558.16;5046895;28;19924;-67
2024/02/24 09:21:30;;;;;;;;;;;;;;;-144.99;nan;52578.53;5050203;28;20464;-67
2024/02/24 09:23:57;;;;;;;;;;;;;;;-144.99;nan;52598.94;5046661;28;19951;-67
2024/02/24 09:26:24;;;;;;;;;;;;;;;-144.99;nan;52554.09;5044258;28;20275;-67
2024/02/24 09:28:50;;;;;;;;;;;;;;;-144.99;nan;52590.78;5045918;28;20032;-67
2024/02/24 09:31:18;;;;;;;;;;;;;;;-144.99;nan;52554.09;5060382;28;20355;-66
2024/02/24 09:33:44;;;;;;;;;;;;;;;-144.99;nan;52543.91;5051742;28;20353;-67
2024/02/24 09:36:11;;;;;;;;;;;;;;;-144.99;nan;52566.31;5057022;28;19924;-68
2024/02/24 09:38:38;;;;;;;;;;;;;;;-144.99;nan;52521.47;5046182;28;19925;-67
2024/02/24 09:41:04;;;;;;;;;;;;;;;-144.99;nan;52545.94;5037112;28;19929;-67
2024/02/24 09:43:31;;;;;;;;;;;;;;;-144.99;nan;52505.16;5044895;28;20353;-67
2024/02/24 09:45:57;;;;;;;;;;;;;;;-144.99;nan;52509.25;5044191;28;19928;-67
2024/02/24 09:48:29;;;;;;;;;;;;;;;-144.99;nan;52537.78;5034600;28;20271;-68
2024/02/24 09:50:55;;;;;;;;;;;;;;;-144.99;nan;52517.41;5056032;28;19928;-67
2024/02/24 09:53:22;;;;;;;;;;;;;;;-144.99;nan;52492.94;5039287;28;19984;-68
2024/02/24 09:55:49;;;;;;;;;;;;;;;-144.99;nan;52472.56;5044148;28;20121;-67
2024/02/24 09:58:16;;;;;;;;;;;;;;;-144.99;nan;52529.63;5045133;28;20003;-67
2024/02/24 10:00:43;;;;;;;;;;;;;;;-144.99;nan;52545.94;5050830;28;19986;-67
2024/02/24 10:03:10;;;;;;;;;;;;;;;-144.99;nan;52472.56;5041977;28;19925;-67
2024/02/24 10:05:39;;;;;;;;;;;;;;;-144.99;nan;52450.13;5049104;28;20365;-67
2024/02/24 10:08:06;;;;;;;;;;;;;;;-144.99;nan;52460.31;5043060;28;20438;-66
2024/02/24 10:10:33;;;;;;;;;;;;;;;-144.99;nan;52448.09;5039786;28;20011;-67
2024/02/24 10:13:01;;;;;;;;;;;;;;;-144.99;nan;52472.56;5057501;28;19924;-67
2024/02/24 10:15:28;;;;;;;;;;;;;;;-144.99;nan;52448.09;5054394;28;19928;-68
2024/02/24 10:17:55;;;;;;;;;;;;;;;-144.99;nan;52419.56;5051339;28;19929;-67
2024/02/24 10:20:22;;;;;;;;;;;;;;;-144.99;nan;52427.72;5053011;28;20282;-67
2024/02/24 10:22:50;;;;;;;;;;;;;;;-144.99;nan;52407.31;5054541;28;19990;-68
2024/02/24 10:25:16;;;;;;;;;;;;;;;-144.99;nan;52460.31;5045415;28;19925;-69
2024/02/24 10:27:43;;;;;;;;;;;;;;;-144.99;nan;52448.09;5051736;28;20023;-68
2024/02/24 10:30:10;;;;;;;;;;;;;;;-144.99;nan;52492.94;5045160;28;20016;-68
2024/02/24 10:32:37;;;;;;;;;;;;;;;-144.99;nan;52488.84;5047339;28;19979;-68
2024/02/24 10:35:04;;;;;;;;;;;;;;;-144.99;nan;52527.59;5047711;28;20074;-68
2024/02/24 10:37:32;;;;;;;;;;;;;;;-144.99;nan;52497.00;5045680;28;19936;-68
2024/02/24 10:40:00;;;;;;;;;;;;;;;-144.99;nan;52497.00;5043465;28;19948;-68
2024/02/24 10:42:28;;;;;;;;;;;;;;;-144.99;nan;52501.09;5050054;28;20243;-68
2024/02/24 10:44:55;;;;;;;;;;;;;;;-144.99;nan;52501.09;5046452;28;19933;-68
2024/02/24 10:47:22;;;;;;;;;;;;;;;-144.99;nan;52503.13;5042869;28;19932;-68
2024/02/24 10:49:48;;;;;;;;;;;;;;;-144.99;nan;52435.88;5044507;28;19971;-68
2024/02/24 10:52:15;;;;;;;;;;;;;;;-144.99;nan;52480.72;5050475;28;19928;-68
2024/02/24 10:54:42;;;;;;;;;;;;;;;-144.99;nan;52482.75;5054973;28;20451;-68
2024/02/24 10:57:11;;;;;;;;;;;;;;;-144.99;nan;52472.56;5045834;28;19944;-68
2024/02/24 10:59:37;;;;;;;;;;;;;;;-144.99;nan;52480.72;5043345;28;20029;-68
2024/02/24 11:02:04;;;;;;;;;;;;;;;-144.99;nan;52427.72;5046125;28;19960;-68
2024/02/24 11:04:34;;;;;;;;;;;;;;;-144.99;nan;52472.56;5046989;28;20394;-68
2024/02/24 11:07:01;;;;;;;;;;;;;;;-144.99;nan;52448.09;5049414;28;19928;-68
2024/02/24 11:09:30;;;;;;;;;;;;;;;-144.99;nan;52472.56;5036721;28;20339;-68
2024/02/24 11:12:04;;;;;;;;;;;;;;;-144.99;nan;52525.56;5049018;28;20155;-68
2024/02/24 11:14:32;;;;;;;;;;;;;;;-144.99;nan;52515.34;5040635;28;19931;-67
2024/02/24 11:16:58;;;;;;;;;;;;;;;-144.99;nan;52525.56;5048585;28;19939;-68
2024/02/24 11:19:49;;;;;;;;;;;;;;;-144.99;nan;52505.16;5036825;28;20016;-67
2024/02/24 11:22:18;;;;;;;;;;;;;;;-144.99;nan;52558.16;5029774;28;19956;-67
2024/02/24 11:24:45;;;;;;;;;;;;;;;-144.99;nan;52529.63;5049895;28;20421;-67
2024/02/24 11:27:12;;;;;;;;;;;;;;;-144.99;nan;52547.97;5049258;28;19996;-68
2024/02/24 11:29:40;;;;;;;;;;;;;;;-144.99;nan;52525.56;5042380;28;20469;-67
2024/02/24 11:32:06;;;;;;;;;;;;;;;-144.99;nan;52515.34;5051244;28;20293;-67
2024/02/24 11:34:34;;;;;;;;;;;;;;;-144.99;nan;52541.84;5051621;28;19929;-67
2024/02/24 11:37:00;;;;;;;;;;;;;;;-144.99;nan;52529.63;5049261;28;20066;-67
2024/02/24 11:39:28;;;;;;;;;;;;;;;-144.99;nan;52525.56;5058415;28;19925;-66
2024/02/24 11:41:55;;;;;;;;;;;;;;;-144.99;nan;52492.94;5047605;28;19987;-68
2024/02/24 11:44:22;;;;;;;;;;;;;;;-144.99;nan;52539.81;5053189;28;19960;-67
2024/02/24 11:46:50;;;;;;;;;;;;;;;-144.99;nan;52497.00;5058808;28;19925;-67
2024/02/24 11:49:16;;;;;;;;;;;;;;;-144.99;nan;52554.09;5061115;28;19928;-68
2024/02/24 11:51:43;;;;;;;;;;;;;;;-144.99;nan;52574.47;5056949;28;19955;-67
2024/02/24 11:54:10;;;;;;;;;;;;;;;-144.99;nan;52543.91;5064601;28;20012;-68
2024/02/24 11:56:37;;;;;;;;;;;;;;;-144.99;nan;52582.63;5054237;28;19925;-68
2024/02/24 11:59:03;;;;;;;;;;;;;;;-144.99;nan;52541.84;5057961;28;19998;-68
2024/02/24 12:01:30;;;;;;;;;;;;;;;-144.99;nan;52605.03;5056068;28;19972;-67
2024/02/24 12:03:59;;;;;;;;;;;;;;;-144.99;nan;52550.00;5052002;28;19929;-67
2024/02/24 12:06:26;;;;;;;;;;;;;;;-144.99;nan;52558.16;5040863;28;20044;-68
2024/02/24 12:08:53;;;;;;;;;;;;;;;-144.99;nan;52572.44;5045556;28;19978;-68
2024/02/24 12:11:20;;;;;;;;;;;;;;;-144.99;nan;52545.94;5050416;28;19924;-68
2024/02/24 12:13:47;;;;;;;;;;;;;;;-144.99;nan;52527.59;5046260;28;20146;-67
2024/02/24 12:16:13;;;;;;;;;;;;;;;-144.99;nan;52558.16;5041332;28;20286;-68
2024/02/24 12:18:40;;;;;;;;;;;;;;;-144.99;nan;52533.69;5044009;28;20028;-68
2024/02/24 12:21:08;;;;;;;;;;;;;;;-144.99;nan;52580.59;5041143;28;20451;-67
2024/02/24 12:23:37;;;;;;;;;;;;;;;-144.99;nan;52550.00;5040546;28;20320;-67
2024/02/24 12:26:13;;;;;;;;;;;;;;;-144.99;nan;52529.63;5053604;28;20008;-68
2024/02/24 12:28:41;;;;;;;;;;;;;;;-144.99;nan;52507.19;5042362;28;20391;-67
2024/02/24 12:31:09;;;;;;;;;;;;;;;-144.99;nan;52329.88;5044456;28;19940;-68
2024/02/24 12:33:36;;;;;;;;;;;;;;;-144.99;nan;52297.25;5040249;28;19935;-68
2024/02/24 12:36:04;;;;;;;;;;;;;;;-144.99;nan;52460.31;5042665;28;20217;-69
2024/02/24 12:38:32;;;;;;;;;;;;;;;-144.99;nan;52452.16;5042037;28;20421;-68
2024/02/24 12:40:59;;;;;;;;;;;;;;;-144.99;nan;52468.47;5043475;28;19959;-68
2024/02/24 12:43:25;;;;;;;;;;;;;;;-144.99;nan;52490.91;5040901;28;20018;-68
2024/02/24 12:45:52;;;;;;;;;;;;;;;-144.99;nan;52529.63;5040995;28;20365;-68